Fairmount Heights, Maryland
Current Conditions -  °F | °C
As of 4:58 AM on Friday 19 Dec 2014 (Local Time) from KADW Reporting Station
Overcast Overcast  
Wind Chill: 27°   Ceiling: 3200
Heat Index: 34°   Visibility: 10mi
Dew Point: 21°   Wind: 8mph
Humidity: 60%   Direction: 300°WNW
Pressure: 30.1"   Gusts: NA
Location:  38.8854°N, 76.8965°W
Report Text: KADW 190958Z 30007KT 10SM BKN032 OVC090 01/M06 A3010 RMK AO2A SLP198
Loading
Personal Weather Stations






























Interactive Weather Map New forecast layout! Learn more

10-Day Weather Forecast

Advertisements
Track Severe Weather on mobile